createdAt,value
2018-07-06T00:02:21.218Z,77.30
2018-07-06T00:05:00.500Z,77.40
2018-07-06T00:07:39.637Z,78.30
2018-07-06T00:12:52.666Z,78.00
2018-07-06T00:15:31.919Z,78.00
2018-07-06T00:20:47.332Z,78.20
2018-07-06T00:23:26.969Z,78.30
2018-07-06T00:26:08.551Z,77.80
2018-07-06T00:28:48.819Z,78.30
2018-07-06T00:34:01.520Z,77.60
2018-07-06T00:41:50.344Z,78.30
2018-07-06T00:44:30.428Z,78.60
2018-07-06T00:47:12.182Z,78.80
2018-07-06T00:49:52.311Z,79.70
2018-07-06T00:52:32.596Z,79.70
2018-07-06T00:55:12.509Z,79.90
2018-07-06T00:57:53.499Z,80.20
2018-07-06T01:03:10.651Z,80.90
2018-07-06T01:08:24.390Z,80.60
2018-07-06T01:16:11.335Z,81.50
2018-07-06T01:23:57.846Z,80.90
2018-07-06T01:26:37.139Z,81.30
2018-07-06T01:29:17.196Z,81.70
2018-07-06T01:31:56.362Z,82.10
2018-07-06T01:34:35.671Z,82.00
2018-07-06T01:37:17.246Z,82.30
2018-07-06T01:39:56.410Z,83.00
2018-07-06T01:42:36.174Z,82.90
2018-07-06T01:45:15.650Z,83.00
2018-07-06T01:47:55.827Z,83.00
2018-07-06T01:50:35.089Z,83.10
2018-07-06T01:53:14.355Z,83.60
2018-07-06T01:55:54.551Z,83.40
2018-07-06T01:58:33.691Z,83.40
2018-07-06T02:01:14.049Z,83.20
2018-07-06T02:03:54.290Z,83.40
2018-07-06T02:06:33.460Z,83.60
2018-07-06T02:09:12.553Z,83.60
2018-07-06T02:11:52.182Z,83.80
2018-07-06T02:14:31.497Z,83.60
2018-07-06T02:19:44.458Z,84.20
2018-07-06T02:24:58.096Z,84.60
2018-07-06T02:32:46.906Z,84.20
2018-07-06T02:35:27.192Z,84.40
2018-07-06T02:38:07.526Z,84.30
2018-07-06T02:40:46.897Z,84.20
2018-07-06T02:43:29.501Z,84.40
2018-07-06T02:46:09.417Z,84.30
2018-07-06T02:48:48.708Z,84.00
2018-07-06T02:51:28.113Z,83.70
2018-07-06T02:54:08.256Z,83.80
2018-07-06T02:56:47.635Z,83.70
2018-07-06T04:20:08.186Z,84.50
2018-07-06T04:22:48.622Z,85.10
2018-07-06T04:25:27.883Z,84.30
2018-07-06T04:28:07.038Z,84.30
2018-07-06T04:33:19.853Z,83.90
2018-07-06T04:35:59.831Z,84.20
2018-07-06T04:41:12.447Z,84.50
2018-07-06T04:46:25.312Z,84.30
2018-07-06T04:49:04.371Z,84.40
2018-07-06T04:54:18.221Z,84.80
2018-07-06T04:57:00.466Z,84.40
2018-07-06T04:59:40.563Z,85.20
2018-07-06T05:04:54.485Z,84.30
2018-07-06T05:10:07.843Z,84.60
2018-07-06T05:12:49.873Z,84.60
2018-07-06T05:15:30.506Z,84.90
2018-07-06T05:23:25.077Z,85.40
2018-07-06T05:31:38.526Z,84.40
2018-07-06T05:34:18.550Z,84.60
2018-07-06T05:36:57.963Z,85.00
2018-07-06T05:39:37.294Z,84.80
2018-07-06T05:42:17.842Z,84.30
2018-07-06T05:44:57.238Z,84.90
2018-07-06T05:50:12.737Z,84.70
2018-07-06T05:55:28.426Z,83.90
2018-07-06T05:58:07.791Z,84.10
2018-07-06T06:00:46.963Z,84.30
2018-07-06T06:03:26.047Z,84.30
2018-07-06T06:06:07.517Z,84.20
2018-07-06T06:11:02.631Z,84.90
2018-07-06T06:15:58.374Z,83.50
2018-07-06T06:20:54.048Z,83.30
2018-07-06T06:23:21.974Z,83.80
2018-07-06T06:25:50.769Z,84.50
2018-07-06T06:28:19.806Z,84.30
2018-07-06T06:30:47.846Z,84.00
2018-07-06T06:33:15.889Z,84.10
2018-07-06T06:35:43.942Z,84.40
2018-07-06T06:38:11.891Z,84.40
2018-07-06T06:40:39.988Z,84.00
2018-07-06T06:43:07.880Z,84.50
2018-07-06T06:45:35.934Z,84.80
2018-07-06T06:48:03.880Z,84.70
2018-07-06T06:50:31.882Z,85.20
2018-07-06T06:52:59.979Z,84.50
2018-07-06T06:55:28.018Z,85.00
2018-07-06T07:00:27.533Z,85.30
2018-07-06T07:02:51.856Z,85.60
2018-07-06T07:05:19.842Z,85.60
2018-07-06T07:07:47.890Z,85.70
2018-07-06T07:10:15.748Z,85.60
2018-07-06T07:15:11.988Z,85.70
2018-07-06T07:20:08.240Z,86.10
2018-07-06T07:22:36.181Z,85.80
2018-07-06T07:25:04.834Z,85.90
2018-07-06T07:27:32.779Z,85.50
2018-07-06T07:32:29.293Z,85.60
2018-07-06T07:34:58.483Z,85.90
2018-07-06T07:37:27.441Z,85.60
2018-07-06T07:39:55.502Z,85.80
2018-07-06T07:42:25.753Z,85.90
2018-07-06T07:44:53.761Z,85.50
2018-07-06T07:49:49.762Z,85.50
2018-07-06T07:52:29.635Z,85.70
2018-07-06T07:54:57.802Z,85.40
2018-07-06T07:57:25.787Z,86.20
2018-07-06T07:59:55.095Z,85.20
2018-07-06T08:04:51.913Z,85.60
2018-07-06T08:07:19.953Z,85.80
2018-07-06T08:09:50.834Z,85.80
2018-07-06T08:12:18.905Z,86.50
2018-07-06T08:17:14.715Z,86.50
2018-07-06T08:19:44.091Z,86.30
2018-07-06T08:22:12.069Z,85.80
2018-07-06T08:24:40.086Z,85.40
2018-07-06T08:27:08.008Z,86.30
2018-07-06T08:29:35.972Z,86.60
2018-07-06T08:32:04.017Z,85.30
2018-07-06T08:34:43.335Z,85.10
2018-07-06T08:37:41.767Z,85.50
2018-07-06T08:40:09.854Z,85.40
2018-07-06T08:42:39.837Z,85.20
2018-07-06T08:47:36.207Z,85.50
2018-07-06T08:50:05.402Z,84.70
2018-07-06T08:52:33.753Z,84.30
2018-07-06T08:57:31.382Z,84.90
2018-07-06T08:59:59.532Z,84.50
2018-07-06T09:02:27.787Z,85.20
2018-07-06T09:04:56.884Z,84.30
2018-07-06T09:09:53.751Z,84.50
2018-07-06T09:14:50.412Z,84.80
2018-07-06T09:17:19.096Z,84.30
2018-07-06T09:19:47.609Z,83.40
2018-07-06T09:27:12.569Z,84.30
2018-07-06T09:29:41.015Z,83.80
2018-07-06T09:32:09.370Z,83.00
2018-07-06T09:34:37.622Z,82.90
2018-07-06T09:37:05.856Z,83.40
2018-07-06T09:39:33.778Z,82.30
2018-07-06T09:44:29.829Z,83.10
2018-07-06T09:46:58.117Z,82.90
2018-07-06T09:49:26.282Z,84.00
2018-07-06T09:54:22.711Z,83.40
2018-07-06T09:59:18.707Z,83.50
2018-07-06T10:01:46.703Z,83.10
2018-07-06T10:04:14.649Z,82.70
2018-07-06T10:06:42.611Z,82.40
2018-07-06T10:09:11.159Z,82.30
2018-07-06T10:14:06.891Z,82.30
2018-07-06T10:16:34.802Z,81.60
2018-07-06T10:19:02.788Z,81.60
2018-07-06T10:21:30.804Z,82.30
2018-07-06T10:29:13.158Z,82.70
2018-07-06T10:32:22.980Z,82.30
2018-07-06T10:34:52.177Z,82.90
2018-07-06T10:37:20.585Z,82.00
2018-07-06T10:39:49.250Z,82.70
2018-07-06T10:44:45.379Z,82.60
2018-07-06T10:47:13.514Z,82.50
2018-07-06T10:49:41.874Z,82.60
2018-07-06T10:52:10.627Z,82.20
2018-07-06T10:54:39.621Z,83.20
2018-07-06T10:59:35.654Z,81.20
2018-07-06T11:02:04.280Z,81.80
2018-07-06T11:04:32.431Z,82.30
2018-07-06T11:07:00.476Z,82.10
2018-07-06T11:09:28.435Z,81.40
2018-07-06T11:11:56.394Z,82.30
2018-07-06T11:14:24.839Z,82.70
2018-07-06T11:16:52.769Z,82.50
2018-07-06T11:19:20.697Z,81.60
2018-07-06T11:21:48.575Z,82.00
2018-07-06T11:24:16.687Z,81.80
2018-07-06T11:29:12.414Z,82.00
2018-07-06T11:34:08.676Z,82.10
2018-07-06T11:39:05.898Z,82.30
2018-07-06T11:41:34.525Z,81.70
2018-07-06T11:46:30.369Z,82.00
2018-07-06T11:48:58.764Z,82.10
2018-07-06T11:51:26.728Z,82.20
2018-07-06T11:56:24.638Z,81.30
2018-07-06T11:58:53.201Z,80.90
2018-07-06T12:01:23.258Z,80.60
2018-07-06T12:03:52.485Z,80.10
2018-07-06T12:08:52.695Z,79.70
2018-07-06T12:11:21.617Z,80.10
2018-07-06T12:18:47.086Z,80.00
2018-07-06T12:21:15.095Z,78.80
2018-07-06T12:23:42.950Z,79.60
2018-07-06T12:26:11.695Z,79.20
2018-07-06T12:33:35.319Z,80.30
2018-07-06T12:36:03.326Z,80.20
2018-07-06T12:38:31.938Z,78.60
2018-07-06T12:40:59.798Z,79.40
2018-07-06T12:43:27.720Z,78.50
2018-07-06T12:45:56.914Z,79.00
2018-07-06T12:48:25.075Z,79.10
2018-07-06T12:50:53.628Z,80.60
2018-07-06T12:53:21.936Z,81.00
2018-07-06T12:55:50.619Z,80.30
2018-07-06T13:03:15.139Z,81.20
2018-07-06T13:15:34.763Z,81.00
2018-07-06T13:18:02.683Z,79.90
2018-07-06T13:20:30.593Z,80.30
2018-07-06T13:22:58.515Z,80.60
2018-07-06T13:25:26.649Z,81.60
2018-07-06T13:30:22.503Z,80.50
2018-07-06T13:32:50.658Z,80.20
2018-07-06T13:35:18.563Z,79.70
2018-07-06T13:37:47.232Z,79.70
2018-07-06T13:40:15.502Z,79.80
2018-07-06T13:42:43.539Z,80.00
2018-07-06T13:45:11.461Z,81.10
2018-07-06T13:47:39.472Z,80.60
2018-07-06T13:50:07.376Z,79.80
2018-07-06T13:57:30.992Z,79.20
2018-07-06T13:59:58.898Z,80.60
2018-07-06T14:02:26.794Z,79.30
2018-07-06T14:04:54.699Z,76.80
2018-07-06T14:07:22.853Z,77.70
2018-07-06T14:09:51.139Z,76.80
2018-07-06T14:12:19.193Z,77.80
2018-07-06T14:17:14.883Z,77.70
2018-07-06T14:19:42.821Z,77.70
2018-07-06T14:22:10.848Z,79.00
2018-07-06T14:24:38.755Z,79.60
2018-07-06T14:27:07.625Z,78.50
2018-07-06T14:29:35.702Z,79.00
2018-07-06T14:32:04.335Z,80.00
2018-07-06T14:34:32.249Z,81.30
2018-07-06T14:37:00.279Z,81.30
2018-07-06T14:39:28.210Z,81.10
2018-07-06T14:41:56.177Z,82.40
2018-07-06T14:44:24.084Z,85.00
2018-07-06T14:46:52.062Z,86.30
2018-07-06T14:49:20.135Z,87.70
2018-07-06T14:51:48.050Z,89.10
2018-07-06T14:56:43.890Z,90.60
2018-07-06T14:59:11.959Z,91.00
2018-07-06T15:01:40.416Z,91.50
2018-07-06T15:06:37.066Z,92.00
2018-07-06T15:09:05.740Z,92.30
2018-07-06T15:11:33.565Z,92.60
2018-07-06T15:14:01.435Z,93.00
2018-07-06T15:16:29.323Z,93.20
2018-07-06T15:18:57.230Z,93.30
2018-07-06T15:21:25.155Z,93.10
2018-07-06T15:23:53.079Z,92.50
2018-07-06T15:26:20.973Z,92.30
2018-07-06T15:28:48.876Z,92.20
2018-07-06T15:31:17.284Z,92.20
2018-07-06T15:33:45.257Z,92.10
2018-07-06T15:36:13.202Z,91.80
2018-07-06T15:41:09.824Z,91.80
2018-07-06T15:43:37.956Z,91.70
2018-07-06T15:46:05.886Z,91.60
2018-07-06T15:48:34.487Z,91.60
2018-07-06T15:51:03.095Z,92.10
2018-07-06T15:55:58.889Z,92.00
2018-07-06T15:58:26.832Z,91.80
2018-07-06T16:00:54.796Z,91.50
2018-07-06T16:03:22.724Z,91.60
2018-07-06T16:10:47.146Z,91.40
2018-07-06T16:13:15.724Z,91.30
2018-07-06T16:15:45.162Z,91.20
2018-07-06T16:18:13.215Z,91.20
2018-07-06T16:23:08.888Z,91.50
2018-07-06T16:25:36.822Z,90.70
2018-07-06T16:30:32.506Z,90.60
2018-07-06T16:33:00.412Z,88.60
2018-07-06T16:35:28.385Z,87.50
2018-07-06T16:40:24.443Z,87.70
2018-07-06T16:42:52.480Z,87.50
2018-07-06T16:45:20.384Z,88.20
2018-07-06T16:47:48.350Z,89.00
2018-07-06T16:57:40.355Z,89.40
2018-07-06T17:00:08.346Z,89.30
2018-07-06T17:02:36.240Z,89.80
2018-07-06T17:05:04.278Z,89.90
2018-07-06T17:07:32.199Z,90.00
2018-07-06T17:10:00.124Z,90.00
2018-07-06T17:12:28.033Z,89.20
2018-07-06T17:17:24.002Z,90.10
2018-07-06T17:19:52.891Z,90.00
2018-07-06T17:22:21.863Z,90.10
2018-07-06T17:24:50.602Z,90.10
2018-07-06T17:27:19.904Z,90.10
2018-07-06T17:29:48.068Z,90.00
2018-07-06T17:32:16.074Z,90.10
2018-07-06T17:34:44.181Z,89.80
2018-07-06T17:37:12.123Z,90.30
2018-07-06T17:42:08.465Z,90.10
2018-07-06T17:49:32.960Z,90.30
2018-07-06T17:52:00.844Z,89.40
2018-07-06T17:56:56.942Z,90.00
2018-07-06T17:59:24.848Z,89.60
2018-07-06T18:01:52.735Z,89.80
2018-07-06T18:06:49.512Z,89.30
2018-07-06T18:09:17.632Z,88.90
2018-07-06T18:11:45.559Z,89.00
2018-07-06T18:14:13.643Z,89.10
2018-07-06T18:16:42.702Z,88.90
2018-07-06T18:21:39.363Z,88.70
2018-07-06T18:24:07.261Z,89.10
2018-07-06T18:26:35.195Z,89.10
2018-07-06T18:33:58.794Z,89.50
2018-07-06T18:38:54.500Z,90.00
2018-07-06T18:41:22.384Z,90.00
2018-07-06T18:43:50.672Z,89.90
2018-07-06T18:48:46.956Z,90.10
2018-07-06T18:51:15.119Z,90.30
2018-07-06T18:53:44.073Z,90.50
2018-07-06T18:58:41.281Z,90.90
2018-07-06T19:01:09.588Z,90.90
2018-07-06T19:03:38.045Z,91.00
2018-07-06T19:06:06.189Z,91.00
2018-07-06T19:08:34.283Z,91.10
2018-07-06T19:11:02.318Z,91.10
2018-07-06T19:18:25.784Z,91.30
2018-07-06T19:20:53.691Z,91.30
2018-07-06T19:28:17.698Z,91.20
2018-07-06T19:30:45.591Z,91.30
2018-07-06T19:33:13.523Z,91.40
2018-07-06T19:35:41.603Z,91.50
2018-07-06T19:40:37.473Z,91.60
2018-07-06T19:43:05.390Z,91.70
2018-07-06T19:45:33.829Z,91.70
2018-07-06T19:48:01.797Z,91.90
2018-07-06T19:50:30.194Z,92.00
2018-07-06T19:52:58.120Z,91.90
2018-07-06T19:55:26.058Z,91.80
2018-07-06T19:57:54.110Z,91.90
2018-07-06T20:00:22.230Z,92.00
2018-07-06T20:02:50.254Z,92.10
2018-07-06T20:05:18.484Z,92.50
2018-07-06T20:07:46.969Z,92.20
2018-07-06T20:10:15.050Z,92.10
2018-07-06T20:12:42.983Z,92.30
2018-07-06T20:15:11.529Z,92.30
2018-07-06T20:17:39.573Z,92.40
2018-07-06T20:20:09.154Z,92.60
2018-07-06T20:22:37.685Z,92.60
2018-07-06T20:25:05.822Z,92.70
2018-07-06T20:27:34.002Z,92.70
2018-07-06T20:30:01.918Z,92.80
2018-07-06T20:32:31.004Z,92.90
2018-07-06T20:35:01.052Z,92.80
2018-07-06T20:37:28.994Z,92.90
2018-07-06T20:39:56.946Z,93.00
2018-07-06T20:42:24.871Z,93.00
2018-07-06T20:47:21.339Z,92.90
2018-07-06T20:49:49.607Z,92.90
2018-07-06T20:52:18.299Z,92.90
2018-07-06T20:54:46.224Z,93.10
2018-07-06T20:57:14.944Z,93.10
2018-07-06T21:02:10.986Z,93.10
2018-07-06T21:04:38.906Z,93.00
2018-07-06T21:07:06.825Z,93.10
2018-07-06T21:12:02.673Z,93.10
2018-07-06T21:16:58.639Z,93.10
2018-07-06T21:19:27.583Z,93.30
2018-07-06T21:21:55.791Z,93.10
2018-07-06T21:24:24.503Z,93.00
2018-07-06T21:26:52.511Z,93.00
2018-07-06T21:34:16.185Z,93.10
2018-07-06T21:36:44.105Z,93.00
2018-07-06T21:39:12.011Z,93.10
2018-07-06T21:41:40.015Z,93.10
2018-07-06T21:46:36.401Z,92.90
2018-07-06T21:49:04.289Z,93.10
2018-07-06T21:51:32.875Z,93.10
2018-07-06T21:54:00.891Z,93.00
2018-07-06T21:58:57.560Z,92.80
2018-07-06T22:01:25.519Z,92.80
2018-07-06T22:06:22.240Z,92.80
2018-07-06T22:08:50.166Z,92.80
2018-07-06T22:11:18.169Z,92.70
2018-07-06T22:13:46.107Z,92.90
2018-07-06T22:16:14.976Z,92.80
2018-07-06T22:23:38.667Z,92.70
2018-07-06T22:26:07.238Z,92.60
2018-07-06T22:28:35.498Z,92.60
2018-07-06T22:31:03.675Z,92.40
2018-07-06T22:33:31.578Z,92.30
2018-07-06T22:38:27.239Z,92.20
2018-07-06T22:40:55.164Z,92.10
2018-07-06T22:43:23.724Z,92.00
2018-07-06T22:45:51.913Z,91.90
2018-07-06T22:48:19.831Z,92.00
2018-07-06T22:50:47.741Z,92.20
2018-07-06T22:53:15.617Z,91.60
2018-07-06T22:55:43.510Z,91.60
2018-07-06T22:58:11.422Z,91.60
2018-07-06T23:00:39.333Z,91.50
2018-07-06T23:03:07.238Z,91.40
2018-07-06T23:08:03.902Z,91.30
2018-07-06T23:10:33.279Z,91.20
2018-07-06T23:13:01.177Z,91.10
2018-07-06T23:15:29.162Z,91.10
2018-07-06T23:17:57.066Z,90.80
2018-07-06T23:23:02.338Z,90.70
2018-07-06T23:25:31.648Z,90.50
2018-07-06T23:27:59.540Z,90.40
2018-07-06T23:30:27.478Z,90.20
2018-07-06T23:35:25.515Z,90.00
2018-07-06T23:37:54.366Z,90.10
2018-07-06T23:42:50.865Z,89.60
2018-07-06T23:45:19.068Z,89.70
2018-07-06T23:47:46.964Z,89.70
2018-07-06T23:55:11.675Z,89.80
